Latest Weather Observations for Cooma Airport

IDN60801

Issued at 5:23 pm EDT Saturday 5 December 2020 (issued every 10 minutes, with the page automatically refreshed every 10 minutes)

About weather observations | Map of weather stations | Latest weather observations for NSW | Other Formats
Station Details ID: 070217 Name: COOMA AIRPORT AWS Lat: -36.29 Lon: 148.97 Height: 930.0 m
Data from the previous 72 hours. | See also: Recent months at Cooma Airport
Date/Time
EDT
Temp
°C
App
Temp
°C
Dew
Point
°C
Rel
Hum
%
Delta-T
°C
Wind Press
QNH
hPa
Press
MSL
hPa
Rain since
9am
mm
Dir  Spd
km/h
Gust
km/h
Spd
kts
Gust
kts
05/05:00pm 23.5 15.9 9.1 40 8.1 NW 39 57 21 31 1001.6 997.8 0.0
05/04:32pm 24.2 16.9 8.6 37 8.7 NW 37 57 20 31 1001.8 998.1 0.0
05/04:30pm 24.4 17.0 8.4 36 8.9 NW 37 57 20 31 1001.8 998.1 0.0
05/04:29pm 24.3 16.5 8.3 36 8.9 NW 39 57 21 31 1001.8 998.1 0.0
05/04:00pm 25.9 17.1 8.0 32 10.1 NNW 44 63 24 34 1002.2 998.5 0.0
05/03:30pm 26.3 17.7 6.4 28 10.8 NNW 41 72 22 39 1002.3 998.6 0.0
05/03:29pm 26.9 18.9 7.4 29 10.8 NNW 39 63 21 34 1002.4 998.7 0.0
05/03:00pm 26.8 18.8 4.0 23 12.0 NW 35 54 19 29 1003.5 999.9 0.0
05/02:31pm 28.2 18.5 3.8 21 12.9 NNW 44 63 24 34 1004.3 1000.6 0.0
05/02:30pm 28.3 18.4 4.6 22 12.7 NNW 46 63 25 34 1004.3 1000.6 0.0
05/02:09pm 28.3 20.6 2.5 19 13.3 NNW 32 50 17 27 1004.8 1001.2 0.0
05/02:00pm 27.5 19.5 1.8 19 13.1 NNW 33 48 18 26 1005.2 1001.5 0.0
05/01:31pm 27.9 20.6 -0.2 16 13.8 NW 28 54 15 29 1005.7 1002.1 0.0
05/01:30pm 27.9 20.9 -0.2 16 13.8 NW 26 54 14 29 1005.7 1002.1 0.0
05/01:00pm 27.4 19.3 -0.6 16 13.6 NNW 32 50 17 27 1006.6 1003.0 0.0
05/12:30pm 26.0 18.7 -0.1 18 12.7 NW 28 48 15 26 1007.2 1003.6 0.0
05/12:28pm 26.3 18.5 -0.7 17 13.0 NW 30 48 16 26 1007.2 1003.6 0.0
05/12:00pm 25.4 18.5 0.1 19 12.3 NW 26 37 14 20 1008.1 1004.5 0.0
05/11:30am 24.8 17.6 -1.9 17 12.4 NW 26 39 14 21 1008.9 1005.3 0.0
05/11:00am 24.9 18.4 0.4 20 11.9 NW 24 37 13 20 1009.4 1005.9 0.0
05/10:30am 24.4 18.5 -0.7 19 11.9 NNW 20 33 11 18 1010.2 1006.6 0.0
05/10:00am 21.6 17.4 7.4 40 7.7 NE 19 22 10 12 1010.6 1007.1 0.0
05/09:30am 18.3 14.5 7.4 49 5.8 NNE 17 20 9 11 1011.3 1007.8 0.0
05/09:00am 17.8 13.9 7.0 49 5.7 NNE 17 20 9 11 1011.8 1008.3 0.0
05/08:30am 16.4 12.4 8.9 61 4.0 NNE 20 24 11 13 1012.2 1008.7 0.0
05/08:00am 13.0 9.2 9.8 81 1.7 NE 20 26 11 14 1012.1 1008.5 0.0
05/07:30am 10.1 6.4 10.1 100 0.0 NNE 20 26 11 14 1012.4 1008.9 0.0
05/07:20am 10.1 6.4 10.1 100 0.0 NNE 20 26 11 14 1012.5 1009.0 0.0
05/07:09am 9.4 5.5 9.4 100 0.0 NNE 20 24 11 13 1012.6 1009.1 0.0
05/07:00am 9.1 5.1 9.1 100 0.0 NE 20 26 11 14 1012.6 1009.1 0.0
05/06:30am 8.2 4.6 8.2 100 0.0 NE 17 20 9 11 1012.5 1009.0 0.0
05/06:00am 7.8 4.8 7.8 100 0.0 NNE 13 15 7 8 1012.5 1009.0 0.0
05/05:30am 7.4 4.3 7.4 100 0.0 NNE 13 19 7 10 1012.8 1009.3 0.0
05/05:00am 7.0 3.5 7.0 100 0.0 NE 15 17 8 9 1012.9 1009.4 0.0
05/04:30am 7.7 3.9 7.7 100 0.0 NNE 17 20 9 11 1013.3 1009.8 0.0
05/04:00am 7.6 4.6 7.6 100 0.0 NE 13 15 7 8 1013.4 1009.9 0.0
05/03:30am 6.2 2.8 6.1 99 0.0 NNE 13 15 7 8 1013.7 1010.2 0.0
05/03:20am 6.5 3.2 6.4 99 0.0 NNE 13 17 7 9 1013.8 1010.3 0.0
05/03:00am 5.9 2.9 5.8 99 0.0 NNE 11 13 6 7 1014.0 1010.5 0.0
05/02:30am 7.5 4.4 7.4 99 0.0 NNE 13 15 7 8 1014.4 1010.9 0.0
05/02:17am 7.3 4.2 7.2 99 0.0 N 13 13 7 7 1014.6 1011.1 0.0
05/02:00am 5.5 3.6 4.8 95 0.3 N 4 9 2 5 1014.8 1011.3 0.0
05/01:48am 5.5 4.4 5.1 97 0.2 CALM 0 0 0 0 1015.1 1011.7 0.0
05/01:30am 5.1 3.8 4.2 94 0.4 CALM 0 0 0 0 1015.3 1011.9 0.0
05/01:00am 6.7 5.8 6.1 96 0.3 CALM 0 0 0 0 1015.5 1012.0 0.0
05/12:30am 7.8 7.2 7.5 98 0.1 CALM 0 0 0 0 1015.3 1011.9 0.0
05/12:00am 7.7 6.6 7.1 96 0.3 NW 2 6 1 3 1015.6 1012.1 0.0
 
Date/Time
EDT
Temp
°C
App
Temp
°C
Dew
Point
°C
Rel
Hum
%
Delta-T
°C
Wind Press
QNH
hPa
Press
MSL
hPa
Rain since
9am
mm
Dir  Spd
km/h
Gust
km/h
Spd
kts
Gust
kts
04/11:30pm 8.4 6.1 7.3 93 0.5 WSW 9 11 5 6 1015.6 1012.1 0.0
04/11:00pm 9.6 7.1 8.2 91 0.7 SW 11 13 6 7 1015.6 1012.1 0.0
04/10:30pm 11.0 8.0 9.4 90 0.8 WSW 15 17 8 9 1015.8 1012.3 0.0
04/10:00pm 11.6 8.2 9.3 86 1.2 SW 17 20 9 11 1015.7 1012.2 0.0
04/09:30pm 12.8 9.9 9.6 81 1.7 WSW 15 19 8 10 1015.6 1012.1 0.0
04/09:00pm 13.6 10.0 6.9 64 3.4 WSW 15 19 8 10 1015.0 1011.5 0.0
04/08:30pm 15.6 11.3 -1.4 31 7.4 WNW 11 17 6 9 1014.1 1010.7 0.0
04/08:00pm 18.7 14.6 -2.8 23 9.4 WNW 9 13 5 7 1014.0 1010.5 0.0
04/07:30pm 21.8 17.0 -2.8 19 11.0 W 13 20 7 11 1013.7 1010.2 0.0
04/07:00pm 22.8 16.8 -2.7 18 11.5 W 19 26 10 14 1013.7 1010.2 0.0
04/06:30pm 23.8 18.5 -3.5 16 12.2 W 15 24 8 13 1013.7 1010.2 0.0
04/06:00pm 24.6 18.5 -3.7 15 12.7 WSW 19 30 10 16 1013.6 1010.1 0.0
04/05:30pm 24.8 17.2 -5.5 13 13.2 WSW 26 37 14 20 1013.5 1010.0 0.0
04/05:00pm 25.0 18.8 -3.4 15 12.9 W 20 35 11 19 1013.5 1010.0 0.0
04/04:30pm 25.3 18.2 -4.1 14 13.2 W 24 43 13 23 1013.7 1010.2 0.0
04/04:00pm 25.8 18.2 -1.9 16 13.0 W 28 44 15 24 1013.8 1010.3 0.0
04/03:40pm 25.2 17.7 -1.6 17 12.6 W 28 46 15 25 1014.0 1010.5 0.0
04/03:30pm 25.5 18.1 -0.5 18 12.5 W 28 39 15 21 1014.1 1010.7 0.0
04/03:10pm 24.8 17.2 0.3 20 11.9 W 30 48 16 26 1014.0 1010.5 0.0
04/03:00pm 25.5 19.2 1.6 21 11.9 W 24 39 13 21 1014.2 1010.8 0.0
04/02:30pm 24.7 16.5 -1.2 18 12.2 W 32 46 17 25 1014.6 1011.1 0.0
04/02:01pm 24.4 16.0 -0.7 19 11.9 W 33 52 18 28 1014.7 1011.2 0.0
04/02:00pm 24.3 15.5 -1.5 18 12.1 W 35 52 19 28 1014.7 1011.2 0.0
04/01:52pm 24.8 17.0 -1.1 18 12.2 W 30 50 16 27 1014.6 1011.1 0.0
04/01:30pm 24.3 15.8 -1.5 18 12.0 W 33 46 18 25 1014.9 1011.4 0.0
04/01:00pm 24.2 15.8 -0.9 19 11.8 W 33 52 18 28 1015.0 1011.5 0.0
04/12:30pm 23.5 14.3 -1.4 19 11.6 W 37 61 20 33 1015.2 1011.8 0.0
04/12:00pm 23.0 14.7 -1.8 19 11.4 W 32 52 17 28 1015.6 1012.1 0.0
04/11:30am 23.0 14.9 -0.5 21 11.1 WNW 32 50 17 27 1015.9 1012.4 0.0
04/11:17am 22.9 14.7 -1.2 20 11.2 W 32 50 17 27 1016.0 1012.6 0.0
04/11:00am 22.8 14.4 -1.3 20 11.2 W 33 50 18 27 1016.1 1012.7 0.0
04/10:34am 22.4 14.5 -1.6 20 11.0 W 30 48 16 26 1016.0 1012.6 0.0
04/10:30am 22.1 14.2 -1.9 20 10.9 W 30 43 16 23 1016.0 1012.6 0.0
04/10:09am 22.2 14.8 -0.5 22 10.6 WNW 28 48 15 26 1016.2 1012.8 0.0
04/10:00am 22.0 13.8 -0.7 22 10.6 W 32 43 17 23 1016.2 1012.8 0.0
04/09:30am 20.9 15.1 0.2 25 9.7 WNW 20 35 11 19 1016.3 1012.9 0.0
04/09:00am 20.2 14.9 1.6 29 8.9 W 19 39 10 21 1016.7 1013.2 0.0
04/08:30am 18.3 15.1 3.0 36 7.4 ENE 9 13 5 7 1016.7 1013.2 0.0
04/08:00am 14.5 11.5 5.8 56 4.4 NE 11 17 6 9 1016.9 1013.4 0.0
04/07:30am 11.4 8.5 6.5 72 2.4 NE 11 13 6 7 1016.8 1013.3 0.0
04/07:00am 8.2 5.7 6.7 90 0.7 NNE 9 11 5 6 1016.8 1013.3 0.0
04/06:30am 6.0 3.7 5.9 99 0.0 N 7 9 4 5 1016.8 1013.3 0.0
04/06:03am 5.1 2.3 5.0 99 0.0 NNE 9 11 5 6 1016.8 1013.3 0.0
04/06:00am 5.0 2.1 4.9 99 0.0 NNE 9 11 5 6 1016.8 1013.3 0.0
04/05:58am 5.1 2.3 5.0 99 0.0 NNE 9 11 5 6 1016.8 1013.3 0.0
04/05:41am 5.4 3.2 5.3 99 0.0 NNE 6 9 3 5 1016.9 1013.4 0.0
04/05:30am 5.5 2.8 5.4 99 0.0 NE 9 11 5 6 1016.8 1013.3 0.0
04/05:11am 5.0 2.5 4.9 99 0.0 NNE 7 11 4 6 1016.9 1013.4 0.0
04/05:00am 5.6 3.4 5.5 99 0.0 N 6 9 3 5 1017.0 1013.6 0.0
04/04:30am 5.2 4.0 4.8 97 0.2 CALM 0 6 0 3 1016.9 1013.4 0.0
04/04:28am 5.5 4.4 5.1 97 0.2 CALM 0 0 0 0 1017.0 1013.6 0.0
04/04:00am 6.6 5.7 6.0 96 0.3 CALM 0 0 0 0 1017.1 1013.7 0.0
04/03:34am 7.2 6.1 5.2 87 0.9 CALM 0 0 0 0 1017.3 1013.9 0.0
04/03:30am 7.4 6.5 6.0 91 0.7 CALM 0 0 0 0 1017.3 1013.9 0.0
04/03:13am 9.7 8.8 9.4 98 0.2 S 4 6 2 3 1017.4 1014.0 0.0
04/03:07am 9.1 7.6 8.3 95 0.4 S 6 7 3 4 1017.4 1014.0 0.0
04/03:00am 9.8 8.4 9.0 95 0.4 S 6 7 3 4 1017.5 1014.1 0.0
04/02:30am 11.7 10.7 11.1 96 0.3 SW 7 9 4 5 1017.8 1014.3 0.0
04/02:00am 11.9 10.7 11.7 99 0.1 SW 9 13 5 7 1018.2 1014.8 0.0
04/01:30am 11.7 10.1 11.7 100 0.0 SW 11 13 6 7 1018.4 1015.0 0.0
04/01:00am 11.2 10.3 11.2 100 0.0 SW 7 11 4 6 1018.6 1015.2 0.0
04/12:30am 7.2 5.2 6.3 94 0.4 SSW 6 11 3 6 1018.6 1015.2 0.0
04/12:00am 8.4 7.7 6.9 90 0.7 CALM 0 0 0 0 1018.7 1015.3 0.0
 
Date/Time
EDT
Temp
°C
App
Temp
°C
Dew
Point
°C
Rel
Hum
%
Delta-T
°C
Wind Press
QNH
hPa
Press
MSL
hPa
Rain since
9am
mm
Dir  Spd
km/h
Gust
km/h
Spd
kts
Gust
kts
03/11:30pm 10.0 9.5 9.4 96 0.3 SE 2 7 1 4 1018.8 1015.4 0.0
03/11:00pm 10.7 9.3 9.6 93 0.6 WNW 7 11 4 6 1018.8 1015.4 0.0
03/10:30pm 11.5 9.7 9.6 88 1.0 SW 9 15 5 8 1018.8 1015.4 0.0
03/10:00pm 11.5 7.8 4.5 62 3.3 WSW 13 17 7 9 1018.7 1015.3 0.0
03/09:30pm 13.6 9.6 3.1 49 4.9 SW 13 17 7 9 1018.7 1015.3 0.0
03/09:00pm 15.1 10.5 -1.0 33 7.0 W 13 22 7 12 1018.5 1015.1 0.0
03/08:30pm 17.1 12.1 -1.5 28 8.2 W 15 20 8 11 1018.3 1014.9 0.0
03/08:00pm 18.6 13.3 -3.5 22 9.4 W 15 20 8 11 1018.4 1015.0 0.0
03/07:30pm 20.7 15.5 -3.0 20 10.4 W 15 20 8 11 1018.2 1014.8 0.0
03/07:00pm 22.5 16.7 -4.5 16 11.7 W 17 24 9 13 1018.1 1014.7 0.0
03/06:30pm 23.3 16.4 -6.6 13 12.6 W 22 32 12 17 1017.9 1014.4 0.0
03/06:00pm 24.3 17.8 -5.8 13 13.0 W 20 28 11 15 1017.5 1014.1 0.0
03/05:30pm 24.9 18.5 -5.4 13 13.2 W 20 30 11 16 1017.6 1014.2 0.0
03/05:00pm 24.9 18.1 -5.4 13 13.2 WNW 22 33 12 18 1017.6 1014.2 0.0
03/04:30pm 25.6 18.7 -5.9 12 13.7 WNW 22 32 12 17 1017.8 1014.3 0.0
03/04:00pm 25.7 19.3 -6.9 11 13.9 WNW 19 48 10 26 1017.9 1014.4 0.0
03/03:30pm 25.6 20.2 -1.2 17 12.7 W 17 24 9 13 1018.2 1014.8 0.0
03/03:00pm 24.5 18.0 -2.1 17 12.3 WNW 22 37 12 20 1018.5 1015.1 0.0
03/02:30pm 24.9 18.5 -1.8 17 12.5 WNW 22 39 12 21 1018.8 1015.4 0.0
03/02:00pm 24.6 18.5 0.2 20 11.8 WNW 22 35 12 19 1019.2 1015.8 0.0
03/01:30pm 24.1 18.5 1.1 22 11.3 WNW 20 37 11 20 1019.7 1016.3 0.0
03/01:00pm 23.1 16.7 -1.8 19 11.4 WNW 22 35 12 19 1020.3 1016.9 0.0
03/12:30pm 22.5 18.8 4.5 31 9.3 NNW 13 26 7 14 1020.4 1017.0 0.0
03/12:00pm 22.1 17.1 3.7 30 9.3 NNW 19 32 10 17 1020.8 1017.5 0.0
03/11:30am 21.4 16.0 2.6 29 9.3 NW 20 32 11 17 1021.1 1017.8 0.0
03/11:00am 20.6 15.5 3.3 32 8.6 NW 19 30 10 16 1021.5 1018.1 0.0
03/10:30am 19.5 15.2 5.2 39 7.3 NNW 17 26 9 14 1021.7 1018.3 0.0
03/10:00am 18.0 13.5 4.2 40 6.8 NW 17 28 9 15 1021.9 1018.6 0.0
03/09:30am 17.2 12.6 6.4 49 5.6 N 20 28 11 15 1021.9 1018.6 0.0
03/09:00am 15.8 10.9 7.1 56 4.5 N 22 30 12 16 1022.1 1018.8 0.0
03/08:30am 14.7 9.5 7.3 61 3.8 N 24 32 13 17 1022.1 1018.8 0.0
03/08:00am 13.2 8.5 7.9 70 2.7 N 22 32 12 17 1022.2 1018.9 0.0
03/07:30am 11.8 7.6 8.1 78 1.9 NNE 20 28 11 15 1022.1 1018.8 0.0
03/07:00am 10.8 6.8 9.2 90 0.8 NNE 20 28 11 15 1022.0 1018.7 0.0
03/06:30am 9.4 6.0 9.3 99 0.1 NNE 17 22 9 12 1022.1 1018.8 0.0
03/06:00am 7.3 3.4 7.2 99 0.0 NE 17 19 9 10 1022.0 1018.7 0.0
03/05:30am 7.5 3.6 7.2 98 0.1 NE 17 19 9 10 1022.0 1018.7 0.0
03/05:29am 7.5 3.6 7.2 98 0.1 NE 17 19 9 10 1022.0 1018.7 0.0
03/05:00am 8.4 4.8 8.3 99 0.1 NNE 17 19 9 10 1021.9 1018.6 0.0
03/04:30am 7.9 4.9 7.8 99 0.0 NNE 13 17 7 9 1021.8 1018.5 0.0
03/04:21am 7.8 4.8 7.5 98 0.1 NNE 13 17 7 9 1021.8 1018.5 0.0
03/04:15am 7.7 4.6 7.3 97 0.2 NNE 13 15 7 8 1021.9 1018.6 0.0
03/04:00am 8.0 4.5 7.2 95 0.4 NNE 15 17 8 9 1021.9 1018.6 0.0
03/03:30am 9.1 5.3 7.7 91 0.7 NE 17 19 9 10 1022.1 1018.8 0.0
03/03:03am 9.8 6.0 7.6 86 1.1 NE 17 20 9 11 1022.2 1018.9 0.0
03/03:00am 9.9 6.1 7.7 86 1.1 NE 17 20 9 11 1022.2 1018.9 0.0
03/02:30am 11.1 6.8 8.0 81 1.6 NE 20 28 11 15 1022.6 1019.2 0.0
03/02:00am 11.2 7.3 8.6 84 1.3 NE 19 22 10 12 1023.0 1019.7 0.0
03/01:30am 11.0 6.9 8.8 86 1.1 NE 20 24 11 13 1023.6 1020.2 0.0
03/01:00am 11.0 7.2 8.9 87 1.1 NE 19 26 10 14 1024.2 1020.9 0.0
03/12:30am 10.8 7.0 9.1 89 0.9 ENE 19 22 10 12 1024.6 1021.4 0.0
03/12:27am 10.7 7.3 9.1 90 0.8 ENE 17 22 9 12 1024.6 1021.4 0.0
03/12:00am 10.6 6.8 8.9 89 0.9 ENE 19 24 10 13 1024.9 1021.6 0.0
 
Date/Time
EDT
Temp
°C
App
Temp
°C
Dew
Point
°C
Rel
Hum
%
Delta-T
°C
Wind Press
QNH
hPa
Press
MSL
hPa
Rain since
9am
mm
Dir  Spd
km/h
Gust
km/h
Spd
kts
Gust
kts
02/11:30pm 10.9 7.5 9.0 88 1.0 ENE 17 20 9 11 1025.2 1021.9 0.0
02/11:00pm 11.1 7.6 8.8 86 1.2 ENE 17 22 9 12 1025.3 1022.0 0.0
02/10:58pm 11.1 7.2 8.8 86 1.2 ENE 19 22 10 12 1025.3 1022.0 0.0
02/10:33pm 11.0 7.5 8.8 86 1.1 ENE 17 24 9 13 1025.3 1022.0 0.0
02/10:30pm 10.9 7.0 8.7 86 1.1 ENE 19 22 10 12 1025.3 1022.0 0.0
02/10:00pm 10.8 7.3 8.7 87 1.1 ENE 17 22 9 12 1025.2 1021.9 0.0
02/09:47pm 10.8 6.9 8.7 87 1.1 ENE 19 24 10 13 1025.0 1021.7 0.0
02/09:30pm 10.8 6.9 8.7 87 1.1 ENE 19 24 10 13 1024.9 1021.6 0.0
02/09:00pm 10.8 6.7 8.7 87 1.1 ENE 20 26 11 14 1024.4 1021.1 0.0
02/08:30pm 11.1 6.7 9.0 87 1.1 NE 22 30 12 16 1023.7 1020.4 0.0
02/08:24pm 11.0 6.6 8.9 87 1.1 NE 22 30 12 16 1023.6 1020.2 0.0
02/08:00pm 11.5 7.1 8.9 84 1.4 NE 22 30 12 16 1023.0 1019.7 0.0
02/07:30pm 12.9 7.8 9.2 78 2.0 NE 26 33 14 18 1022.8 1019.5 0.0
02/07:00pm 14.1 9.1 9.5 74 2.5 ENE 26 33 14 18 1021.9 1018.6 0.0
02/06:30pm 15.7 10.4 9.8 68 3.2 ENE 28 37 15 20 1021.3 1017.9 0.0
02/06:00pm 17.6 12.0 10.2 62 4.1 ENE 30 37 16 20 1020.7 1017.3 0.0
02/05:30pm 19.1 14.1 10.9 59 4.7 NE 28 39 15 21 1020.0 1016.7 0.0

Other formats

Comma delimited format used in spreadsheet applications
http://www.bom.gov.au/fwo/IDN60801/IDN60801.94921.axf

JavaScript Object Notation format (JSON) in row-major order
http://www.bom.gov.au/fwo/IDN60801/IDN60801.94921.json

Data quality

Most of these data are generated automatically and are frequently updated. Quality checks on data are not normally performed. It is possible for incorrect values to appear. Refer to information at About Latest Weather Observations and please check the disclaimer before using these data.